sensor_id;sensor_type;location;lat;lon;timestamp;P1;durP1;ratioP1;P2;durP2;ratioP2
17790;SDS011;9019;48.132;-1.210;2023-03-09T00:01:51;17.47;;;2.90;;
17790;SDS011;9019;48.132;-1.210;2023-03-09T00:04:19;13.87;;;3.00;;
17790;SDS011;9019;48.132;-1.210;2023-03-09T00:06:47;26.00;;;3.33;;
17790;SDS011;9019;48.132;-1.210;2023-03-09T00:09:14;23.77;;;2.93;;
17790;SDS011;9019;48.132;-1.210;2023-03-09T00:11:42;25.83;;;3.37;;
17790;SDS011;9019;48.132;-1.210;2023-03-09T00:14:11;20.13;;;3.03;;
17790;SDS011;9019;48.132;-1.210;2023-03-09T00:16:38;22.93;;;3.30;;
17790;SDS011;9019;48.132;-1.210;2023-03-09T00:19:06;19.63;;;3.47;;
17790;SDS011;9019;48.132;-1.210;2023-03-09T00:21:33;23.87;;;3.83;;
17790;SDS011;9019;48.132;-1.210;2023-03-09T00:24:02;22.47;;;4.17;;
17790;SDS011;9019;48.132;-1.210;2023-03-09T00:26:29;17.70;;;3.27;;
17790;SDS011;9019;48.132;-1.210;2023-03-09T00:28:56;22.07;;;3.17;;
17790;SDS011;9019;48.132;-1.210;2023-03-09T00:31:25;18.53;;;3.40;;
17790;SDS011;9019;48.132;-1.210;2023-03-09T00:33:52;20.17;;;3.40;;
17790;SDS011;9019;48.132;-1.210;2023-03-09T00:36:19;20.90;;;3.10;;
17790;SDS011;9019;48.132;-1.210;2023-03-09T00:38:50;20.47;;;3.17;;
17790;SDS011;9019;48.132;-1.210;2023-03-09T00:41:17;22.43;;;3.43;;
17790;SDS011;9019;48.132;-1.210;2023-03-09T00:43:44;21.50;;;3.23;;
17790;SDS011;9019;48.132;-1.210;2023-03-09T00:46:12;19.80;;;3.67;;
17790;SDS011;9019;48.132;-1.210;2023-03-09T00:48:40;27.23;;;3.40;;
17790;SDS011;9019;48.132;-1.210;2023-03-09T00:51:09;23.63;;;3.07;;
17790;SDS011;9019;48.132;-1.210;2023-03-09T00:53:36;20.00;;;3.33;;
17790;SDS011;9019;48.132;-1.210;2023-03-09T00:56:04;21.37;;;3.07;;
17790;SDS011;9019;48.132;-1.210;2023-03-09T00:58:32;23.83;;;3.30;;
17790;SDS011;9019;48.132;-1.210;2023-03-09T01:00:59;25.03;;;3.33;;
17790;SDS011;9019;48.132;-1.210;2023-03-09T01:03:27;24.30;;;3.23;;
17790;SDS011;9019;48.132;-1.210;2023-03-09T01:05:55;20.20;;;3.27;;
17790;SDS011;9019;48.132;-1.210;2023-03-09T01:08:25;21.90;;;4.07;;
17790;SDS011;9019;48.132;-1.210;2023-03-09T01:10:52;23.53;;;4.10;;
17790;SDS011;9019;48.132;-1.210;2023-03-09T01:13:20;19.43;;;3.43;;
17790;SDS011;9019;48.132;-1.210;2023-03-09T01:15:47;28.20;;;3.53;;
17790;SDS011;9019;48.132;-1.210;2023-03-09T01:18:14;26.93;;;3.93;;
17790;SDS011;9019;48.132;-1.210;2023-03-09T01:20:41;22.90;;;3.30;;
17790;SDS011;9019;48.132;-1.210;2023-03-09T01:23:10;21.47;;;3.47;;
17790;SDS011;9019;48.132;-1.210;2023-03-09T01:25:37;23.37;;;3.17;;
17790;SDS011;9019;48.132;-1.210;2023-03-09T01:28:04;21.97;;;3.53;;
17790;SDS011;9019;48.132;-1.210;2023-03-09T01:30:31;24.63;;;3.67;;
17790;SDS011;9019;48.132;-1.210;2023-03-09T01:32:58;23.60;;;3.60;;
17790;SDS011;9019;48.132;-1.210;2023-03-09T01:35:26;25.70;;;3.60;;
17790;SDS011;9019;48.132;-1.210;2023-03-09T01:37:53;27.80;;;3.87;;
17790;SDS011;9019;48.132;-1.210;2023-03-09T01:40:23;19.93;;;3.43;;
17790;SDS011;9019;48.132;-1.210;2023-03-09T01:42:54;22.83;;;3.70;;
17790;SDS011;9019;48.132;-1.210;2023-03-09T01:48:07;25.10;;;3.43;;
17790;SDS011;9019;48.132;-1.210;2023-03-09T01:50:34;23.90;;;4.17;;
17790;SDS011;9019;48.132;-1.210;2023-03-09T01:53:03;23.87;;;3.63;;
17790;SDS011;9019;48.132;-1.210;2023-03-09T01:55:34;22.90;;;3.47;;
17790;SDS011;9019;48.132;-1.210;2023-03-09T01:58:02;26.63;;;3.87;;
17790;SDS011;9019;48.132;-1.210;2023-03-09T02:00:31;30.17;;;3.77;;
17790;SDS011;9019;48.132;-1.210;2023-03-09T02:02:58;27.00;;;4.37;;
17790;SDS011;9019;48.132;-1.210;2023-03-09T02:05:28;22.67;;;4.07;;
17790;SDS011;9019;48.132;-1.210;2023-03-09T02:07:57;20.30;;;3.60;;
17790;SDS011;9019;48.132;-1.210;2023-03-09T02:10:25;24.30;;;3.97;;
17790;SDS011;9019;48.132;-1.210;2023-03-09T02:12:56;23.03;;;3.77;;
17790;SDS011;9019;48.132;-1.210;2023-03-09T02:15:24;21.07;;;4.53;;
17790;SDS011;9019;48.132;-1.210;2023-03-09T02:17:51;26.93;;;3.90;;
17790;SDS011;9019;48.132;-1.210;2023-03-09T02:20:19;24.57;;;3.90;;
17790;SDS011;9019;48.132;-1.210;2023-03-09T02:22:49;29.80;;;4.23;;
17790;SDS011;9019;48.132;-1.210;2023-03-09T02:25:18;24.57;;;3.87;;
17790;SDS011;9019;48.132;-1.210;2023-03-09T02:27:47;26.37;;;3.93;;
17790;SDS011;9019;48.132;-1.210;2023-03-09T02:30:15;23.73;;;4.57;;
17790;SDS011;9019;48.132;-1.210;2023-03-09T02:32:42;31.73;;;3.83;;
17790;SDS011;9019;48.132;-1.210;2023-03-09T02:35:09;34.23;;;3.80;;
17790;SDS011;9019;48.132;-1.210;2023-03-09T02:37:37;29.77;;;4.03;;
17790;SDS011;9019;48.132;-1.210;2023-03-09T02:40:06;25.03;;;4.33;;
17790;SDS011;9019;48.132;-1.210;2023-03-09T02:42:37;25.20;;;3.63;;
17790;SDS011;9019;48.132;-1.210;2023-03-09T02:45:07;26.67;;;4.43;;
17790;SDS011;9019;48.132;-1.210;2023-03-09T02:47:34;26.63;;;3.97;;
17790;SDS011;9019;48.132;-1.210;2023-03-09T02:50:04;27.00;;;3.90;;
17790;SDS011;9019;48.132;-1.210;2023-03-09T02:52:31;21.63;;;3.33;;
17790;SDS011;9019;48.132;-1.210;2023-03-09T02:54:58;26.73;;;4.13;;
17790;SDS011;9019;48.132;-1.210;2023-03-09T02:57:26;25.17;;;3.97;;
17790;SDS011;9019;48.132;-1.210;2023-03-09T02:59:53;29.03;;;4.03;;
17790;SDS011;9019;48.132;-1.210;2023-03-09T03:02:21;30.37;;;4.57;;
17790;SDS011;9019;48.132;-1.210;2023-03-09T03:04:48;29.67;;;3.90;;
17790;SDS011;9019;48.132;-1.210;2023-03-09T03:07:16;28.63;;;4.50;;
17790;SDS011;9019;48.132;-1.210;2023-03-09T03:09:43;26.10;;;4.07;;
17790;SDS011;9019;48.132;-1.210;2023-03-09T03:12:10;27.77;;;4.30;;
17790;SDS011;9019;48.132;-1.210;2023-03-09T03:14:37;28.80;;;4.67;;
17790;SDS011;9019;48.132;-1.210;2023-03-09T03:17:04;28.77;;;4.30;;
17790;SDS011;9019;48.132;-1.210;2023-03-09T03:19:33;33.97;;;5.20;;
17790;SDS011;9019;48.132;-1.210;2023-03-09T03:22:00;28.97;;;3.97;;
17790;SDS011;9019;48.132;-1.210;2023-03-09T03:24:27;28.93;;;4.00;;
17790;SDS011;9019;48.132;-1.210;2023-03-09T03:26:55;32.30;;;4.63;;
17790;SDS011;9019;48.132;-1.210;2023-03-09T03:29:22;28.70;;;4.30;;
17790;SDS011;9019;48.132;-1.210;2023-03-09T03:31:49;28.80;;;4.40;;
17790;SDS011;9019;48.132;-1.210;2023-03-09T03:34:17;31.20;;;4.23;;
17790;SDS011;9019;48.132;-1.210;2023-03-09T03:36:45;35.63;;;4.93;;
17790;SDS011;9019;48.132;-1.210;2023-03-09T03:39:13;31.13;;;4.40;;
17790;SDS011;9019;48.132;-1.210;2023-03-09T03:41:40;34.70;;;4.43;;
17790;SDS011;9019;48.132;-1.210;2023-03-09T03:44:07;37.40;;;5.20;;
17790;SDS011;9019;48.132;-1.210;2023-03-09T03:46:34;34.17;;;4.80;;
17790;SDS011;9019;48.132;-1.210;2023-03-09T03:49:02;26.97;;;4.87;;
17790;SDS011;9019;48.132;-1.210;2023-03-09T03:51:29;39.10;;;4.77;;
17790;SDS011;9019;48.132;-1.210;2023-03-09T03:53:57;32.37;;;4.93;;
17790;SDS011;9019;48.132;-1.210;2023-03-09T03:56:24;31.17;;;4.77;;
17790;SDS011;9019;48.132;-1.210;2023-03-09T03:58:52;34.37;;;5.03;;
17790;SDS011;9019;48.132;-1.210;2023-03-09T04:01:19;36.77;;;4.23;;
17790;SDS011;9019;48.132;-1.210;2023-03-09T04:03:46;33.13;;;4.97;;
17790;SDS011;9019;48.132;-1.210;2023-03-09T04:06:13;33.93;;;4.90;;
17790;SDS011;9019;48.132;-1.210;2023-03-09T04:08:41;30.30;;;4.03;;
17790;SDS011;9019;48.132;-1.210;2023-03-09T04:11:10;33.20;;;5.23;;
17790;SDS011;9019;48.132;-1.210;2023-03-09T04:13:38;32.90;;;5.20;;
17790;SDS011;9019;48.132;-1.210;2023-03-09T04:16:05;36.23;;;5.43;;
17790;SDS011;9019;48.132;-1.210;2023-03-09T04:18:32;35.67;;;4.53;;
17790;SDS011;9019;48.132;-1.210;2023-03-09T04:21:00;34.53;;;4.90;;
17790;SDS011;9019;48.132;-1.210;2023-03-09T04:23:27;31.10;;;5.67;;
17790;SDS011;9019;48.132;-1.210;2023-03-09T04:25:54;36.63;;;4.90;;
17790;SDS011;9019;48.132;-1.210;2023-03-09T04:28:23;32.97;;;5.13;;
17790;SDS011;9019;48.132;-1.210;2023-03-09T04:30:51;41.87;;;4.53;;
17790;SDS011;9019;48.132;-1.210;2023-03-09T04:33:19;36.77;;;5.17;;
17790;SDS011;9019;48.132;-1.210;2023-03-09T04:35:46;34.37;;;5.00;;
17790;SDS011;9019;48.132;-1.210;2023-03-09T04:38:13;33.47;;;5.40;;
17790;SDS011;9019;48.132;-1.210;2023-03-09T04:40:41;24.97;;;4.27;;
17790;SDS011;9019;48.132;-1.210;2023-03-09T04:43:08;38.77;;;5.33;;
17790;SDS011;9019;48.132;-1.210;2023-03-09T04:45:36;29.80;;;5.07;;
17790;SDS011;9019;48.132;-1.210;2023-03-09T04:48:04;30.37;;;5.60;;
17790;SDS011;9019;48.132;-1.210;2023-03-09T04:50:31;37.47;;;5.37;;
17790;SDS011;9019;48.132;-1.210;2023-03-09T04:52:58;40.73;;;5.30;;
17790;SDS011;9019;48.132;-1.210;2023-03-09T04:55:25;36.13;;;4.93;;
17790;SDS011;9019;48.132;-1.210;2023-03-09T04:57:53;34.37;;;4.73;;
17790;SDS011;9019;48.132;-1.210;2023-03-09T05:00:20;34.47;;;5.73;;
17790;SDS011;9019;48.132;-1.210;2023-03-09T05:02:49;34.43;;;5.47;;
17790;SDS011;9019;48.132;-1.210;2023-03-09T05:05:17;36.57;;;5.70;;
17790;SDS011;9019;48.132;-1.210;2023-03-09T05:07:44;36.97;;;5.60;;
17790;SDS011;9019;48.132;-1.210;2023-03-09T05:10:11;40.37;;;6.53;;
17790;SDS011;9019;48.132;-1.210;2023-03-09T05:12:39;38.10;;;5.40;;
17790;SDS011;9019;48.132;-1.210;2023-03-09T05:15:06;41.67;;;5.83;;
17790;SDS011;9019;48.132;-1.210;2023-03-09T05:17:34;41.00;;;5.87;;
17790;SDS011;9019;48.132;-1.210;2023-03-09T05:20:03;40.77;;;6.50;;
17790;SDS011;9019;48.132;-1.210;2023-03-09T05:22:34;36.13;;;6.00;;
17790;SDS011;9019;48.132;-1.210;2023-03-09T05:25:02;39.03;;;6.27;;
17790;SDS011;9019;48.132;-1.210;2023-03-09T05:27:29;39.30;;;6.17;;
17790;SDS011;9019;48.132;-1.210;2023-03-09T05:29:57;36.57;;;6.73;;
17790;SDS011;9019;48.132;-1.210;2023-03-09T05:32:24;39.37;;;6.37;;
17790;SDS011;9019;48.132;-1.210;2023-03-09T05:34:51;37.70;;;5.67;;
17790;SDS011;9019;48.132;-1.210;2023-03-09T05:37:20;45.80;;;6.67;;
17790;SDS011;9019;48.132;-1.210;2023-03-09T05:39:47;41.83;;;6.20;;
17790;SDS011;9019;48.132;-1.210;2023-03-09T05:42:15;38.43;;;6.07;;
17790;SDS011;9019;48.132;-1.210;2023-03-09T05:44:42;40.13;;;5.87;;
17790;SDS011;9019;48.132;-1.210;2023-03-09T05:47:10;36.93;;;6.00;;
17790;SDS011;9019;48.132;-1.210;2023-03-09T05:49:37;43.57;;;6.37;;
17790;SDS011;9019;48.132;-1.210;2023-03-09T05:52:05;41.27;;;6.30;;
17790;SDS011;9019;48.132;-1.210;2023-03-09T05:54:33;37.20;;;5.97;;
17790;SDS011;9019;48.132;-1.210;2023-03-09T05:57:00;40.53;;;6.07;;
17790;SDS011;9019;48.132;-1.210;2023-03-09T05:59:28;37.37;;;5.90;;
17790;SDS011;9019;48.132;-1.210;2023-03-09T06:01:55;44.03;;;6.47;;
17790;SDS011;9019;48.132;-1.210;2023-03-09T06:04:22;40.77;;;6.03;;
17790;SDS011;9019;48.132;-1.210;2023-03-09T06:06:49;33.83;;;5.80;;
17790;SDS011;9019;48.132;-1.210;2023-03-09T06:09:16;35.30;;;5.63;;
17790;SDS011;9019;48.132;-1.210;2023-03-09T06:11:45;45.17;;;6.90;;
17790;SDS011;9019;48.132;-1.210;2023-03-09T06:14:12;38.87;;;6.03;;
17790;SDS011;9019;48.132;-1.210;2023-03-09T06:16:39;42.33;;;6.43;;
17790;SDS011;9019;48.132;-1.210;2023-03-09T06:19:07;36.03;;;6.40;;
17790;SDS011;9019;48.132;-1.210;2023-03-09T06:21:34;33.63;;;6.37;;
17790;SDS011;9019;48.132;-1.210;2023-03-09T06:24:01;42.37;;;5.90;;
17790;SDS011;9019;48.132;-1.210;2023-03-09T06:26:28;33.37;;;6.10;;
17790;SDS011;9019;48.132;-1.210;2023-03-09T06:28:57;38.73;;;5.33;;
17790;SDS011;9019;48.132;-1.210;2023-03-09T06:31:24;34.37;;;6.23;;
17790;SDS011;9019;48.132;-1.210;2023-03-09T06:33:51;38.70;;;6.27;;
17790;SDS011;9019;48.132;-1.210;2023-03-09T06:36:18;39.43;;;6.47;;
17790;SDS011;9019;48.132;-1.210;2023-03-09T06:38:46;37.73;;;6.37;;
17790;SDS011;9019;48.132;-1.210;2023-03-09T06:41:13;35.57;;;5.97;;
17790;SDS011;9019;48.132;-1.210;2023-03-09T06:43:41;36.37;;;6.00;;
17790;SDS011;9019;48.132;-1.210;2023-03-09T06:46:11;35.50;;;5.60;;
17790;SDS011;9019;48.132;-1.210;2023-03-09T06:48:38;42.03;;;6.20;;
17790;SDS011;9019;48.132;-1.210;2023-03-09T06:51:06;42.00;;;6.57;;
17790;SDS011;9019;48.132;-1.210;2023-03-09T06:53:33;32.13;;;5.90;;
17790;SDS011;9019;48.132;-1.210;2023-03-09T06:56:00;40.70;;;6.60;;
17790;SDS011;9019;48.132;-1.210;2023-03-09T06:58:28;35.00;;;5.67;;
17790;SDS011;9019;48.132;-1.210;2023-03-09T07:00:56;35.67;;;5.80;;
17790;SDS011;9019;48.132;-1.210;2023-03-09T07:03:24;34.60;;;6.47;;
17790;SDS011;9019;48.132;-1.210;2023-03-09T07:05:51;37.63;;;6.30;;
17790;SDS011;9019;48.132;-1.210;2023-03-09T07:08:19;49.03;;;7.30;;
17790;SDS011;9019;48.132;-1.210;2023-03-09T07:10:46;46.20;;;6.07;;
17790;SDS011;9019;48.132;-1.210;2023-03-09T07:13:14;45.73;;;6.53;;
17790;SDS011;9019;48.132;-1.210;2023-03-09T07:15:42;38.37;;;5.83;;
17790;SDS011;9019;48.132;-1.210;2023-03-09T07:18:09;41.37;;;5.87;;
17790;SDS011;9019;48.132;-1.210;2023-03-09T07:20:39;44.17;;;6.50;;
17790;SDS011;9019;48.132;-1.210;2023-03-09T07:23:06;39.93;;;6.77;;
17790;SDS011;9019;48.132;-1.210;2023-03-09T07:25:33;34.67;;;6.20;;
17790;SDS011;9019;48.132;-1.210;2023-03-09T07:28:01;42.30;;;5.73;;
17790;SDS011;9019;48.132;-1.210;2023-03-09T07:30:29;28.63;;;6.13;;
17790;SDS011;9019;48.132;-1.210;2023-03-09T07:32:56;42.07;;;6.70;;
17790;SDS011;9019;48.132;-1.210;2023-03-09T07:35:24;33.27;;;6.40;;
17790;SDS011;9019;48.132;-1.210;2023-03-09T07:37:52;37.30;;;6.47;;
17790;SDS011;9019;48.132;-1.210;2023-03-09T07:40:20;37.97;;;6.43;;
17790;SDS011;9019;48.132;-1.210;2023-03-09T07:42:48;37.40;;;6.37;;
17790;SDS011;9019;48.132;-1.210;2023-03-09T07:45:17;36.33;;;5.93;;
17790;SDS011;9019;48.132;-1.210;2023-03-09T07:47:45;32.60;;;6.20;;
17790;SDS011;9019;48.132;-1.210;2023-03-09T07:50:13;37.57;;;6.27;;
17790;SDS011;9019;48.132;-1.210;2023-03-09T07:52:40;40.37;;;6.87;;
17790;SDS011;9019;48.132;-1.210;2023-03-09T07:55:10;30.40;;;6.07;;
17790;SDS011;9019;48.132;-1.210;2023-03-09T07:57:38;41.67;;;6.40;;
17790;SDS011;9019;48.132;-1.210;2023-03-09T08:00:06;40.30;;;6.97;;
17790;SDS011;9019;48.132;-1.210;2023-03-09T08:02:37;37.07;;;6.50;;
17790;SDS011;9019;48.132;-1.210;2023-03-09T08:05:06;33.63;;;6.47;;
17790;SDS011;9019;48.132;-1.210;2023-03-09T08:07:33;39.80;;;6.60;;
17790;SDS011;9019;48.132;-1.210;2023-03-09T08:10:00;36.97;;;5.80;;
17790;SDS011;9019;48.132;-1.210;2023-03-09T08:12:29;29.07;;;6.17;;
17790;SDS011;9019;48.132;-1.210;2023-03-09T08:14:56;37.50;;;7.43;;
17790;SDS011;9019;48.132;-1.210;2023-03-09T08:17:24;31.53;;;5.67;;
17790;SDS011;9019;48.132;-1.210;2023-03-09T08:19:52;33.23;;;6.20;;
17790;SDS011;9019;48.132;-1.210;2023-03-09T08:22:20;30.97;;;5.60;;
17790;SDS011;9019;48.132;-1.210;2023-03-09T08:24:47;28.60;;;5.80;;
17790;SDS011;9019;48.132;-1.210;2023-03-09T08:27:14;34.80;;;5.57;;
17790;SDS011;9019;48.132;-1.210;2023-03-09T08:29:43;36.67;;;6.50;;
17790;SDS011;9019;48.132;-1.210;2023-03-09T08:32:10;31.03;;;6.17;;
17790;SDS011;9019;48.132;-1.210;2023-03-09T08:34:38;31.47;;;5.90;;
17790;SDS011;9019;48.132;-1.210;2023-03-09T08:37:05;36.50;;;7.00;;
17790;SDS011;9019;48.132;-1.210;2023-03-09T08:39:32;36.00;;;5.73;;
17790;SDS011;9019;48.132;-1.210;2023-03-09T08:42:00;31.57;;;6.23;;
17790;SDS011;9019;48.132;-1.210;2023-03-09T08:44:27;39.10;;;5.93;;
17790;SDS011;9019;48.132;-1.210;2023-03-09T08:46:56;34.40;;;5.57;;
17790;SDS011;9019;48.132;-1.210;2023-03-09T08:49:23;35.17;;;6.40;;
17790;SDS011;9019;48.132;-1.210;2023-03-09T08:51:50;37.23;;;6.33;;
17790;SDS011;9019;48.132;-1.210;2023-03-09T08:54:17;35.67;;;6.23;;
17790;SDS011;9019;48.132;-1.210;2023-03-09T08:56:45;38.30;;;6.77;;
17790;SDS011;9019;48.132;-1.210;2023-03-09T08:59:12;39.33;;;6.73;;
17790;SDS011;9019;48.132;-1.210;2023-03-09T09:01:39;32.83;;;6.53;;
17790;SDS011;9019;48.132;-1.210;2023-03-09T09:04:08;30.07;;;5.93;;
17790;SDS011;9019;48.132;-1.210;2023-03-09T09:06:35;37.13;;;5.97;;
17790;SDS011;9019;48.132;-1.210;2023-03-09T09:09:02;33.23;;;5.33;;
17790;SDS011;9019;48.132;-1.210;2023-03-09T09:11:29;34.87;;;5.83;;
17790;SDS011;9019;48.132;-1.210;2023-03-09T09:13:57;36.87;;;6.90;;
17790;SDS011;9019;48.132;-1.210;2023-03-09T09:16:24;34.13;;;6.20;;
17790;SDS011;9019;48.132;-1.210;2023-03-09T09:18:54;38.60;;;6.03;;
17790;SDS011;9019;48.132;-1.210;2023-03-09T09:21:23;31.83;;;6.50;;
17790;SDS011;9019;48.132;-1.210;2023-03-09T09:23:53;29.30;;;5.87;;
17790;SDS011;9019;48.132;-1.210;2023-03-09T09:26:20;37.73;;;7.40;;
17790;SDS011;9019;48.132;-1.210;2023-03-09T09:28:47;36.30;;;7.07;;
17790;SDS011;9019;48.132;-1.210;2023-03-09T09:31:16;41.40;;;6.07;;
17790;SDS011;9019;48.132;-1.210;2023-03-09T09:33:45;35.00;;;6.00;;
17790;SDS011;9019;48.132;-1.210;2023-03-09T09:36:13;32.60;;;6.50;;
17790;SDS011;9019;48.132;-1.210;2023-03-09T09:38:41;33.57;;;5.80;;
17790;SDS011;9019;48.132;-1.210;2023-03-09T09:41:11;31.20;;;6.07;;
17790;SDS011;9019;48.132;-1.210;2023-03-09T09:43:40;36.83;;;6.63;;
17790;SDS011;9019;48.132;-1.210;2023-03-09T09:46:09;34.57;;;6.17;;
17790;SDS011;9019;48.132;-1.210;2023-03-09T09:48:36;34.40;;;6.50;;
17790;SDS011;9019;48.132;-1.210;2023-03-09T09:51:09;36.03;;;6.47;;
17790;SDS011;9019;48.132;-1.210;2023-03-09T09:53:39;36.77;;;6.03;;
17790;SDS011;9019;48.132;-1.210;2023-03-09T09:56:10;35.27;;;5.90;;
17790;SDS011;9019;48.132;-1.210;2023-03-09T09:58:40;35.07;;;5.57;;
17790;SDS011;9019;48.132;-1.210;2023-03-09T10:01:13;37.97;;;6.63;;
17790;SDS011;9019;48.132;-1.210;2023-03-09T10:03:44;36.30;;;6.47;;
17790;SDS011;9019;48.132;-1.210;2023-03-09T10:06:14;37.07;;;6.33;;
17790;SDS011;9019;48.132;-1.210;2023-03-09T10:08:43;30.60;;;5.87;;
17790;SDS011;9019;48.132;-1.210;2023-03-09T10:11:15;30.87;;;5.70;;
17790;SDS011;9019;48.132;-1.210;2023-03-09T10:13:45;25.57;;;4.83;;
17790;SDS011;9019;48.132;-1.210;2023-03-09T10:16:14;30.10;;;6.63;;
17790;SDS011;9019;48.132;-1.210;2023-03-09T10:18:43;27.37;;;5.80;;
17790;SDS011;9019;48.132;-1.210;2023-03-09T10:21:13;34.40;;;5.73;;
17790;SDS011;9019;48.132;-1.210;2023-03-09T10:23:42;29.53;;;5.67;;
17790;SDS011;9019;48.132;-1.210;2023-03-09T10:26:15;27.37;;;5.17;;
17790;SDS011;9019;48.132;-1.210;2023-03-09T10:28:44;30.80;;;5.33;;
17790;SDS011;9019;48.132;-1.210;2023-03-09T10:31:14;32.77;;;6.00;;
17790;SDS011;9019;48.132;-1.210;2023-03-09T10:33:43;32.83;;;6.23;;
17790;SDS011;9019;48.132;-1.210;2023-03-09T10:36:11;27.53;;;5.23;;
17790;SDS011;9019;48.132;-1.210;2023-03-09T10:38:40;24.60;;;5.07;;
17790;SDS011;9019;48.132;-1.210;2023-03-09T10:41:11;24.37;;;5.23;;
17790;SDS011;9019;48.132;-1.210;2023-03-09T10:43:42;29.00;;;6.47;;
17790;SDS011;9019;48.132;-1.210;2023-03-09T10:46:11;26.77;;;4.60;;
17790;SDS011;9019;48.132;-1.210;2023-03-09T10:48:39;26.73;;;5.80;;
17790;SDS011;9019;48.132;-1.210;2023-03-09T10:51:19;24.57;;;5.30;;
17790;SDS011;9019;48.132;-1.210;2023-03-09T10:53:47;30.43;;;5.73;;
17790;SDS011;9019;48.132;-1.210;2023-03-09T10:56:15;26.60;;;5.30;;
17790;SDS011;9019;48.132;-1.210;2023-03-09T10:58:44;25.73;;;5.20;;
17790;SDS011;9019;48.132;-1.210;2023-03-09T11:01:21;22.73;;;4.23;;
17790;SDS011;9019;48.132;-1.210;2023-03-09T11:03:50;20.33;;;4.37;;
17790;SDS011;9019;48.132;-1.210;2023-03-09T11:06:24;18.73;;;4.27;;
17790;SDS011;9019;48.132;-1.210;2023-03-09T11:08:53;13.77;;;2.83;;
17790;SDS011;9019;48.132;-1.210;2023-03-09T11:11:21;15.43;;;3.63;;
17790;SDS011;9019;48.132;-1.210;2023-03-09T11:13:50;11.97;;;2.97;;
17790;SDS011;9019;48.132;-1.210;2023-03-09T11:16:19;14.57;;;3.77;;
17790;SDS011;9019;48.132;-1.210;2023-03-09T11:18:47;13.47;;;4.37;;
17790;SDS011;9019;48.132;-1.210;2023-03-09T11:21:20;12.87;;;3.37;;
17790;SDS011;9019;48.132;-1.210;2023-03-09T11:23:48;12.40;;;3.20;;
17790;SDS011;9019;48.132;-1.210;2023-03-09T11:26:16;12.60;;;3.00;;
17790;SDS011;9019;48.132;-1.210;2023-03-09T11:28:48;14.00;;;3.30;;
17790;SDS011;9019;48.132;-1.210;2023-03-09T11:31:19;14.73;;;3.63;;
17790;SDS011;9019;48.132;-1.210;2023-03-09T11:33:47;15.37;;;3.80;;
17790;SDS011;9019;48.132;-1.210;2023-03-09T11:36:15;16.80;;;3.90;;
17790;SDS011;9019;48.132;-1.210;2023-03-09T11:38:44;14.23;;;3.58;;
17790;SDS011;9019;48.132;-1.210;2023-03-09T11:41:13;18.50;;;4.20;;
17790;SDS011;9019;48.132;-1.210;2023-03-09T11:43:41;18.37;;;3.87;;
17790;SDS011;9019;48.132;-1.210;2023-03-09T11:46:11;18.30;;;4.07;;
17790;SDS011;9019;48.132;-1.210;2023-03-09T11:48:41;29.40;;;5.00;;
17790;SDS011;9019;48.132;-1.210;2023-03-09T11:51:11;26.37;;;5.40;;
17790;SDS011;9019;48.132;-1.210;2023-03-09T11:53:40;27.33;;;4.83;;
17790;SDS011;9019;48.132;-1.210;2023-03-09T11:56:12;22.27;;;5.03;;
17790;SDS011;9019;48.132;-1.210;2023-03-09T11:58:42;22.07;;;4.30;;
17790;SDS011;9019;48.132;-1.210;2023-03-09T12:01:15;28.00;;;4.53;;
17790;SDS011;9019;48.132;-1.210;2023-03-09T12:03:47;24.80;;;5.50;;
17790;SDS011;9019;48.132;-1.210;2023-03-09T12:06:23;24.88;;;5.10;;
17790;SDS011;9019;48.132;-1.210;2023-03-09T12:08:53;29.98;;;5.43;;
17790;SDS011;9019;48.132;-1.210;2023-03-09T12:11:22;20.88;;;4.70;;
17790;SDS011;9019;48.132;-1.210;2023-03-09T12:13:51;22.65;;;4.60;;
17790;SDS011;9019;48.132;-1.210;2023-03-09T12:16:20;21.23;;;4.93;;
17790;SDS011;9019;48.132;-1.210;2023-03-09T12:18:55;24.15;;;4.90;;
17790;SDS011;9019;48.132;-1.210;2023-03-09T12:21:29;26.60;;;4.80;;
17790;SDS011;9019;48.132;-1.210;2023-03-09T12:23:57;22.10;;;5.07;;
17790;SDS011;9019;48.132;-1.210;2023-03-09T12:26:30;26.10;;;4.83;;
17790;SDS011;9019;48.132;-1.210;2023-03-09T12:28:58;24.50;;;4.80;;
17790;SDS011;9019;48.132;-1.210;2023-03-09T12:31:29;28.50;;;4.90;;
17790;SDS011;9019;48.132;-1.210;2023-03-09T12:34:02;25.70;;;5.37;;
17790;SDS011;9019;48.132;-1.210;2023-03-09T12:36:31;24.23;;;4.60;;
17790;SDS011;9019;48.132;-1.210;2023-03-09T12:41:55;22.17;;;4.33;;
17790;SDS011;9019;48.132;-1.210;2023-03-09T12:47:17;21.07;;;4.63;;
17790;SDS011;9019;48.132;-1.210;2023-03-09T12:49:49;22.30;;;4.87;;
17790;SDS011;9019;48.132;-1.210;2023-03-09T12:52:33;24.70;;;4.57;;
17790;SDS011;9019;48.132;-1.210;2023-03-09T12:55:02;25.97;;;5.00;;
17790;SDS011;9019;48.132;-1.210;2023-03-09T12:57:30;26.37;;;5.17;;
17790;SDS011;9019;48.132;-1.210;2023-03-09T13:00:11;21.47;;;4.80;;
17790;SDS011;9019;48.132;-1.210;2023-03-09T13:02:38;27.10;;;4.97;;
17790;SDS011;9019;48.132;-1.210;2023-03-09T13:07:54;31.43;;;5.80;;
17790;SDS011;9019;48.132;-1.210;2023-03-09T13:10:24;25.07;;;4.83;;
17790;SDS011;9019;48.132;-1.210;2023-03-09T13:12:54;18.83;;;4.10;;
17790;SDS011;9019;48.132;-1.210;2023-03-09T13:15:22;31.30;;;5.67;;
17790;SDS011;9019;48.132;-1.210;2023-03-09T13:18:03;24.27;;;4.67;;
17790;SDS011;9019;48.132;-1.210;2023-03-09T13:20:33;20.53;;;4.40;;
17790;SDS011;9019;48.132;-1.210;2023-03-09T13:23:04;29.97;;;5.63;;
17790;SDS011;9019;48.132;-1.210;2023-03-09T13:25:33;20.33;;;4.93;;
17790;SDS011;9019;48.132;-1.210;2023-03-09T13:28:12;24.43;;;5.20;;
17790;SDS011;9019;48.132;-1.210;2023-03-09T13:30:41;19.13;;;4.40;;
17790;SDS011;9019;48.132;-1.210;2023-03-09T13:33:12;26.20;;;5.07;;
17790;SDS011;9019;48.132;-1.210;2023-03-09T13:35:42;27.07;;;5.03;;
17790;SDS011;9019;48.132;-1.210;2023-03-09T13:38:14;23.30;;;4.80;;
17790;SDS011;9019;48.132;-1.210;2023-03-09T13:40:49;26.80;;;4.90;;
17790;SDS011;9019;48.132;-1.210;2023-03-09T13:43:18;23.33;;;5.10;;
17790;SDS011;9019;48.132;-1.210;2023-03-09T13:48:41;28.00;;;5.30;;
17790;SDS011;9019;48.132;-1.210;2023-03-09T13:51:21;18.83;;;3.88;;
17790;SDS011;9019;48.132;-1.210;2023-03-09T13:53:50;20.10;;;3.80;;
17790;SDS011;9019;48.132;-1.210;2023-03-09T13:56:17;19.00;;;3.65;;
17790;SDS011;9019;48.132;-1.210;2023-03-09T13:58:45;17.15;;;3.30;;
17790;SDS011;9019;48.132;-1.210;2023-03-09T14:01:18;18.63;;;3.60;;
17790;SDS011;9019;48.132;-1.210;2023-03-09T14:03:46;15.40;;;3.60;;
17790;SDS011;9019;48.132;-1.210;2023-03-09T14:06:14;18.33;;;3.93;;
17790;SDS011;9019;48.132;-1.210;2023-03-09T14:08:43;17.03;;;3.27;;
17790;SDS011;9019;48.132;-1.210;2023-03-09T14:11:16;12.27;;;3.10;;
17790;SDS011;9019;48.132;-1.210;2023-03-09T14:13:46;14.47;;;2.93;;
17790;SDS011;9019;48.132;-1.210;2023-03-09T14:16:16;12.73;;;3.40;;
17790;SDS011;9019;48.132;-1.210;2023-03-09T14:18:46;18.37;;;3.83;;
17790;SDS011;9019;48.132;-1.210;2023-03-09T14:21:18;15.37;;;2.97;;
17790;SDS011;9019;48.132;-1.210;2023-03-09T14:23:45;20.63;;;3.40;;
17790;SDS011;9019;48.132;-1.210;2023-03-09T14:26:12;10.53;;;2.90;;
17790;SDS011;9019;48.132;-1.210;2023-03-09T14:29:01;15.97;;;3.03;;
17790;SDS011;9019;48.132;-1.210;2023-03-09T14:31:29;11.90;;;2.50;;
17790;SDS011;9019;48.132;-1.210;2023-03-09T14:33:57;14.23;;;3.00;;
17790;SDS011;9019;48.132;-1.210;2023-03-09T14:36:25;10.07;;;2.53;;
17790;SDS011;9019;48.132;-1.210;2023-03-09T14:38:54;12.27;;;2.83;;
17790;SDS011;9019;48.132;-1.210;2023-03-09T14:41:22;10.07;;;2.50;;
17790;SDS011;9019;48.132;-1.210;2023-03-09T14:43:49;10.43;;;2.50;;
17790;SDS011;9019;48.132;-1.210;2023-03-09T14:46:18;11.00;;;2.50;;
17790;SDS011;9019;48.132;-1.210;2023-03-09T14:48:45;13.00;;;3.17;;
17790;SDS011;9019;48.132;-1.210;2023-03-09T14:51:14;10.20;;;2.00;;
17790;SDS011;9019;48.132;-1.210;2023-03-09T14:53:55;8.30;;;2.23;;
17790;SDS011;9019;48.132;-1.210;2023-03-09T14:56:23;9.00;;;2.30;;
17790;SDS011;9019;48.132;-1.210;2023-03-09T14:58:50;10.87;;;2.33;;